Time;durP1;ratioP1;P1;durP2;ratioP2;P2;SDS_P1;SDS_P2;PMS_P1;PMS_P2;Temp;Humidity;BMP_temperature;BMP_pressure;BME280_temperature;BME280_humidity;BME280_pressure;Samples;Min_cycle;Max_cycle;Signal;HPM_P1;HPM_P2
2022/11/19 00:01:47;;;;;;;;;;;;;;;6.50;100.00;96977.56;5121814;28;19991;-61
2022/11/19 00:04:13;;;;;;;;;;;;;;;6.25;100.00;96979.31;5119800;28;19995;-61
2022/11/19 00:06:41;;;;;;;;;;;;;;;5.91;100.00;96978.88;5120547;28;19965;-60
2022/11/19 00:09:09;;;;;;;;;;;;;;;5.81;100.00;96978.75;5123267;28;20029;-61
2022/11/19 00:14:20;;;;;;;;;;;;;;;5.72;100.00;96981.09;5119629;28;19924;-61
2022/11/19 00:16:46;;;;;;;;;;;;;;;6.04;100.00;96981.03;5121016;28;19974;-62
2022/11/19 00:19:13;;;;;;;;;;;;;;;6.22;100.00;96979.84;5122999;28;20006;-61
2022/11/19 00:21:41;;;;;;;;;;;;;;;6.57;100.00;96972.03;5122094;28;19927;-61
2022/11/19 00:24:07;;;;;;;;;;;;;;;6.64;100.00;96977.09;5111106;28;19967;-60
2022/11/19 00:26:34;;;;;;;;;;;;;;;6.42;100.00;96974.63;5119646;28;19924;-61
2022/11/19 00:29:00;;;;;;;;;;;;;;;6.67;100.00;96973.91;5111128;28;19987;-60
2022/11/19 00:31:27;;;;;;;;;;;;;;;6.72;100.00;96987.19;5110723;28;20034;-61
2022/11/19 00:33:54;;;;;;;;;;;;;;;6.48;100.00;96987.63;5111074;28;19974;-61
2022/11/19 00:36:20;;;;;;;;;;;;;;;6.51;100.00;96992.44;5110888;28;19924;-61
2022/11/19 00:38:48;;;;;;;;;;;;;;;6.56;100.00;96990.88;5110556;28;19991;-61
2022/11/19 00:41:14;;;;;;;;;;;;;;;6.46;100.00;97000.38;5110619;28;19924;-61
2022/11/19 00:43:47;;;;;;;;;;;;;;;6.03;100.00;96998.03;5110702;28;19959;-61
2022/11/19 00:46:13;;;;;;;;;;;;;;;5.76;100.00;96991.97;5110363;28;19932;-60
2022/11/19 00:48:40;;;;;;;;;;;;;;;5.78;100.00;97001.28;5110354;28;19936;-61
2022/11/19 00:51:06;;;;;;;;;;;;;;;5.52;100.00;97003.97;5110452;28;20081;-61
2022/11/19 00:53:33;;;;;;;;;;;;;;;5.58;100.00;97006.41;5110198;28;20008;-61
2022/11/19 00:56:01;;;;;;;;;;;;;;;5.05;100.00;97009.06;5118548;28;19920;-61
2022/11/19 00:58:27;;;;;;;;;;;;;;;5.59;100.00;97015.94;5118488;28;20362;-61
2022/11/19 01:00:54;;;;;;;;;;;;;;;5.48;100.00;97010.84;5121298;28;19932;-61
2022/11/19 01:03:21;;;;;;;;;;;;;;;5.85;100.00;97017.75;5122085;28;19924;-61
2022/11/19 01:05:47;;;;;;;;;;;;;;;5.59;100.00;97012.50;5120072;28;19927;-66
2022/11/19 01:08:13;;;;;;;;;;;;;;;5.64;100.00;97017.81;5118731;28;19924;-61
2022/11/19 01:10:40;;;;;;;;;;;;;;;5.40;100.00;97018.16;5119281;28;20083;-60
2022/11/19 01:15:51;;;;;;;;;;;;;;;6.20;100.00;97027.78;5119701;28;19942;-61
2022/11/19 01:18:18;;;;;;;;;;;;;;;5.74;100.00;97028.50;5118323;28;19930;-61
2022/11/19 01:20:45;;;;;;;;;;;;;;;5.45;100.00;97028.00;5119672;28;19924;-61
2022/11/19 01:23:11;;;;;;;;;;;;;;;5.60;100.00;97025.47;5132368;27;19946;-61
2022/11/19 01:25:38;;;;;;;;;;;;;;;5.21;100.00;97032.81;5118020;28;19935;-61
2022/11/19 01:28:05;;;;;;;;;;;;;;;5.14;100.00;97034.84;5125067;28;19935;-61
2022/11/19 01:30:32;;;;;;;;;;;;;;;5.22;100.00;97037.06;5117726;28;19943;-60
2022/11/19 01:32:59;;;;;;;;;;;;;;;6.43;100.00;97035.38;5121593;28;19954;-61
2022/11/19 01:35:25;;;;;;;;;;;;;;;6.13;100.00;97043.13;5121830;28;20407;-61
2022/11/19 01:37:52;;;;;;;;;;;;;;;5.84;100.00;97042.66;5119380;28;20015;-61
2022/11/19 01:40:19;;;;;;;;;;;;;;;5.57;100.00;97046.38;5117937;28;20012;-60
2022/11/19 01:42:52;;;;;;;;;;;;;;;5.34;100.00;97037.72;5119549;28;19959;-61
2022/11/19 01:45:24;;;;;;;;;;;;;;;6.43;100.00;97034.56;5121330;28;19938;-62
2022/11/19 01:47:52;;;;;;;;;;;;;;;6.10;100.00;97040.97;5118930;28;19983;-61
2022/11/19 01:50:21;;;;;;;;;;;;;;;5.84;100.00;97044.50;5117385;28;20224;-62
2022/11/19 01:52:48;;;;;;;;;;;;;;;6.01;100.00;97053.09;5117793;28;19924;-61
2022/11/19 01:55:14;;;;;;;;;;;;;;;5.37;100.00;97047.78;5115180;28;19950;-61
2022/11/19 01:57:41;;;;;;;;;;;;;;;6.37;100.00;97052.31;5120413;28;19958;-61
2022/11/19 02:00:08;;;;;;;;;;;;;;;6.01;100.00;97058.41;5117813;28;19967;-61
2022/11/19 02:02:34;;;;;;;;;;;;;;;5.96;100.00;97069.00;5117722;28;19996;-61
2022/11/19 02:05:02;;;;;;;;;;;;;;;5.47;100.00;97064.81;5121199;28;19924;-61
2022/11/19 02:07:31;;;;;;;;;;;;;;;5.91;100.00;97074.25;5120440;28;19959;-61
2022/11/19 02:09:59;;;;;;;;;;;;;;;5.56;100.00;97066.78;5121417;28;19991;-61
2022/11/19 02:12:30;;;;;;;;;;;;;;;5.18;100.00;97070.38;5121437;28;19931;-61
2022/11/19 02:15:04;;;;;;;;;;;;;;;5.13;100.00;97067.69;5117911;28;19924;-60
2022/11/19 02:17:38;;;;;;;;;;;;;;;5.67;100.00;97075.59;5117576;28;20008;-60
2022/11/19 02:20:31;;;;;;;;;;;;;;;6.09;100.00;97073.88;5117624;28;19988;-61
2022/11/19 02:23:06;;;;;;;;;;;;;;;5.58;100.00;97069.97;5117486;28;20012;-60
2022/11/19 02:25:38;;;;;;;;;;;;;;;5.52;100.00;97072.81;5117101;28;19927;-60
2022/11/19 02:28:17;;;;;;;;;;;;;;;4.74;100.00;97076.72;5117322;28;20023;-60
2022/11/19 02:30:47;;;;;;;;;;;;;;;4.73;100.00;97088.38;5118447;28;19936;-60
2022/11/19 02:33:19;;;;;;;;;;;;;;;4.53;100.00;97072.22;5120931;28;19959;-60
2022/11/19 02:35:48;;;;;;;;;;;;;;;4.39;100.00;97081.56;5119141;28;19962;-60
2022/11/19 02:38:23;;;;;;;;;;;;;;;4.22;100.00;97076.28;5117168;28;19970;-60
2022/11/19 02:40:52;;;;;;;;;;;;;;;4.18;100.00;97075.16;5121683;28;20011;-61
2022/11/19 02:43:21;;;;;;;;;;;;;;;4.33;100.00;97072.78;5125207;28;20474;-61
2022/11/19 02:45:51;;;;;;;;;;;;;;;5.57;100.00;97070.22;5122954;28;19943;-60
2022/11/19 02:48:21;;;;;;;;;;;;;;;5.56;100.00;97076.56;5121264;28;19928;-61
2022/11/19 02:50:49;;;;;;;;;;;;;;;5.45;100.00;97075.66;5122827;28;20011;-61
2022/11/19 02:53:15;;;;;;;;;;;;;;;4.58;100.00;97086.31;5118778;28;19924;-61
2022/11/19 02:56:09;;;;;;;;;;;;;;;4.44;100.00;97089.56;5120859;28;20010;-61
2022/11/19 03:06:44;;;;;;;;;;;;;;;5.17;100.00;97100.50;5122165;28;19968;-61
2022/11/19 03:09:11;;;;;;;;;;;;;;;4.91;100.00;97111.88;5124144;28;20058;-61
2022/11/19 03:11:37;;;;;;;;;;;;;;;4.86;100.00;97104.66;5123691;28;19939;-60
2022/11/19 03:16:56;;;;;;;;;;;;;;;5.00;100.00;97099.00;5122846;28;19951;-61
2022/11/19 03:19:27;;;;;;;;;;;;;;;5.18;100.00;97102.13;5123674;28;19923;-62
2022/11/19 03:21:56;;;;;;;;;;;;;;;5.30;100.00;97110.72;5121402;28;20000;-61
2022/11/19 03:24:27;;;;;;;;;;;;;;;5.71;100.00;97111.94;5111869;28;19924;-61
2022/11/19 03:26:56;;;;;;;;;;;;;;;5.73;100.00;97109.03;5123187;28;19964;-62
2022/11/19 03:29:24;;;;;;;;;;;;;;;5.74;100.00;97126.53;5124124;28;19934;-61
2022/11/19 03:31:53;;;;;;;;;;;;;;;5.67;100.00;97125.91;5122069;28;19983;-62
2022/11/19 03:34:22;;;;;;;;;;;;;;;5.83;100.00;97131.13;5120430;28;19939;-61
2022/11/19 03:36:51;;;;;;;;;;;;;;;5.92;100.00;97144.72;5122196;28;19943;-61
2022/11/19 03:39:18;;;;;;;;;;;;;;;5.79;100.00;97145.91;5123742;28;20047;-61
2022/11/19 03:41:46;;;;;;;;;;;;;;;5.62;100.00;97142.56;5122045;28;19924;-62
2022/11/19 03:44:15;;;;;;;;;;;;;;;5.36;100.00;97138.84;5120177;28;19935;-61
2022/11/19 03:46:43;;;;;;;;;;;;;;;5.40;100.00;97153.19;5120760;28;19998;-61
2022/11/19 03:49:11;;;;;;;;;;;;;;;5.72;100.00;97149.81;5123461;28;19975;-62
2022/11/19 03:51:41;;;;;;;;;;;;;;;5.88;100.00;97143.66;5122431;28;19960;-61
2022/11/19 03:54:08;;;;;;;;;;;;;;;6.02;100.00;97144.81;5111455;28;19935;-61
2022/11/19 03:56:36;;;;;;;;;;;;;;;6.20;100.00;97147.09;5119685;28;19931;-61
2022/11/19 03:59:02;;;;;;;;;;;;;;;6.10;100.00;97157.59;5120169;28;19956;-61
2022/11/19 04:01:29;;;;;;;;;;;;;;;5.84;100.00;97153.13;5119685;28;19924;-61
2022/11/19 04:06:42;;;;;;;;;;;;;;;5.38;100.00;97159.78;5122491;28;20088;-61
2022/11/19 04:09:08;;;;;;;;;;;;;;;5.37;100.00;97174.88;5119714;28;19983;-61
2022/11/19 04:11:34;;;;;;;;;;;;;;;5.33;100.00;97168.47;5119871;28;19978;-60
2022/11/19 04:14:01;;;;;;;;;;;;;;;5.53;100.00;97172.41;5119630;28;19979;-61
2022/11/19 04:16:27;;;;;;;;;;;;;;;4.77;100.00;97171.44;5119597;28;19924;-60
2022/11/19 04:18:53;;;;;;;;;;;;;;;4.49;100.00;97184.81;5122182;28;19936;-61
2022/11/19 04:21:20;;;;;;;;;;;;;;;4.77;100.00;97176.75;5123224;28;19923;-61
2022/11/19 04:23:48;;;;;;;;;;;;;;;4.88;100.00;97175.84;5113067;28;19966;-60
2022/11/19 04:26:14;;;;;;;;;;;;;;;5.20;100.00;97182.06;5119649;28;19959;-60
2022/11/19 04:28:40;;;;;;;;;;;;;;;5.73;100.00;97173.41;5120319;28;19987;-61
2022/11/19 04:31:06;;;;;;;;;;;;;;;5.42;100.00;97184.72;5123101;28;19979;-61
2022/11/19 04:33:33;;;;;;;;;;;;;;;5.66;100.00;97178.13;5122853;28;19992;-61
2022/11/19 04:35:59;;;;;;;;;;;;;;;5.02;100.00;97192.16;5119402;28;19924;-60
2022/11/19 04:38:25;;;;;;;;;;;;;;;4.38;100.00;97183.84;5119209;28;19924;-60
2022/11/19 04:40:53;;;;;;;;;;;;;;;5.49;100.00;97189.81;5121470;28;19955;-61
2022/11/19 04:43:19;;;;;;;;;;;;;;;5.18;100.00;97184.16;5122647;28;19931;-60
2022/11/19 04:45:46;;;;;;;;;;;;;;;4.92;100.00;97182.22;5120875;28;20010;-60
2022/11/19 04:48:13;;;;;;;;;;;;;;;4.63;100.00;97199.28;5118900;28;19924;-61
2022/11/19 04:50:39;;;;;;;;;;;;;;;4.67;100.00;97189.84;5119431;28;20030;-60
2022/11/19 04:53:05;;;;;;;;;;;;;;;4.79;100.00;97201.13;5118041;28;19924;-61
2022/11/19 04:55:32;;;;;;;;;;;;;;;5.13;100.00;97197.34;5118568;28;19959;-61
2022/11/19 04:57:59;;;;;;;;;;;;;;;4.93;100.00;97205.00;5119317;28;19928;-61
2022/11/19 05:00:26;;;;;;;;;;;;;;;4.62;100.00;97200.31;5118884;28;19943;-61
2022/11/19 05:02:52;;;;;;;;;;;;;;;5.15;100.00;97203.19;5121027;28;19931;-61
2022/11/19 05:05:18;;;;;;;;;;;;;;;4.34;100.00;97202.03;5121791;28;19975;-60
2022/11/19 05:07:44;;;;;;;;;;;;;;;4.61;100.00;97202.16;5120936;28;19923;-61
2022/11/19 05:10:11;;;;;;;;;;;;;;;5.09;100.00;97208.66;5118794;28;20015;-60
2022/11/19 05:12:37;;;;;;;;;;;;;;;5.13;100.00;97197.34;5119042;28;19959;-60
2022/11/19 05:15:05;;;;;;;;;;;;;;;5.53;100.00;97197.03;5122326;28;19930;-60
2022/11/19 05:17:32;;;;;;;;;;;;;;;4.88;100.00;97202.31;5122121;28;20027;-60
2022/11/19 05:19:59;;;;;;;;;;;;;;;4.60;100.00;97205.06;5118796;28;20189;-60
2022/11/19 05:22:25;;;;;;;;;;;;;;;4.39;100.00;97203.97;5118258;28;19924;-61
2022/11/19 05:24:51;;;;;;;;;;;;;;;3.90;100.00;97212.66;5112336;28;20456;-59
2022/11/19 05:27:18;;;;;;;;;;;;;;;4.22;100.00;97211.06;5121963;28;20036;-60
2022/11/19 05:29:44;;;;;;;;;;;;;;;4.43;100.00;97204.25;5120286;28;19996;-60
2022/11/19 05:32:12;;;;;;;;;;;;;;;4.82;100.00;97213.88;5118229;28;20501;-61
2022/11/19 05:34:38;;;;;;;;;;;;;;;5.03;100.00;97212.28;5118769;28;19996;-61
2022/11/19 05:37:04;;;;;;;;;;;;;;;5.38;100.00;97216.19;5121789;28;20019;-61
2022/11/19 05:39:31;;;;;;;;;;;;;;;4.86;100.00;97217.59;5121471;28;19974;-60
2022/11/19 05:41:57;;;;;;;;;;;;;;;4.86;100.00;97212.31;5118292;28;20015;-61
2022/11/19 05:44:23;;;;;;;;;;;;;;;4.65;100.00;97213.06;5118015;28;19991;-61
2022/11/19 05:46:50;;;;;;;;;;;;;;;5.23;100.00;97216.00;5120244;28;19944;-61
2022/11/19 05:49:18;;;;;;;;;;;;;;;4.47;100.00;97205.38;5121301;28;19931;-61
2022/11/19 05:51:45;;;;;;;;;;;;;;;4.31;100.00;97207.00;5119989;28;19979;-60
2022/11/19 05:54:12;;;;;;;;;;;;;;;4.07;100.00;97211.63;5109273;28;19928;-59
2022/11/19 05:56:38;;;;;;;;;;;;;;;3.93;100.00;97205.03;5118008;28;19930;-61
2022/11/19 05:59:04;;;;;;;;;;;;;;;3.74;100.00;97214.22;5121468;28;20022;-61
2022/11/19 06:01:31;;;;;;;;;;;;;;;4.50;100.00;97215.47;5121435;28;19958;-61
2022/11/19 06:03:57;;;;;;;;;;;;;;;4.19;100.00;97220.28;5118320;28;19938;-61
2022/11/19 06:06:25;;;;;;;;;;;;;;;3.68;100.00;97212.50;5117625;28;19995;-60
2022/11/19 06:08:51;;;;;;;;;;;;;;;4.46;100.00;97222.28;5119860;28;19924;-61
2022/11/19 06:13:58;;;;;;;;;;;;;;;4.54;100.00;97237.75;5117088;28;20000;-60
2022/11/19 06:16:25;;;;;;;;;;;;;;;4.60;100.00;97232.31;5121084;28;19970;-61
2022/11/19 06:18:51;;;;;;;;;;;;;;;4.22;100.00;97229.56;5124155;28;19932;-62
2022/11/19 06:21:17;;;;;;;;;;;;;;;4.60;100.00;97228.88;5125632;28;19931;-60
2022/11/19 06:23:45;;;;;;;;;;;;;;;5.05;100.00;97226.06;5115593;28;19928;-60
2022/11/19 06:26:11;;;;;;;;;;;;;;;4.50;100.00;97231.34;5121929;28;19930;-61
2022/11/19 06:28:38;;;;;;;;;;;;;;;4.68;100.00;97239.03;5122367;28;20003;-61
2022/11/19 06:31:04;;;;;;;;;;;;;;;4.54;100.00;97238.56;5125148;28;19987;-61
2022/11/19 06:33:30;;;;;;;;;;;;;;;4.01;100.00;97241.63;5125513;28;20598;-62
2022/11/19 06:35:57;;;;;;;;;;;;;;;3.73;100.00;97233.72;5122073;28;19970;-61
2022/11/19 06:38:23;;;;;;;;;;;;;;;4.48;100.00;97238.72;5121824;28;19924;-61
2022/11/19 06:40:51;;;;;;;;;;;;;;;4.57;100.00;97253.16;5123327;28;19992;-61
2022/11/19 06:43:17;;;;;;;;;;;;;;;4.89;100.00;97254.16;5125022;28;19924;-61
2022/11/19 06:45:44;;;;;;;;;;;;;;;4.70;100.00;97258.94;5123546;28;19919;-61
2022/11/19 06:48:10;;;;;;;;;;;;;;;4.78;100.00;97255.06;5121280;28;19987;-60
2022/11/19 06:50:36;;;;;;;;;;;;;;;4.61;100.00;97262.97;5121268;28;19991;-60
2022/11/19 06:53:03;;;;;;;;;;;;;;;4.58;100.00;97263.47;5120869;28;19964;-61
2022/11/19 06:55:29;;;;;;;;;;;;;;;4.90;100.00;97269.00;5120478;28;19986;-62
2022/11/19 06:58:01;;;;;;;;;;;;;;;4.63;100.00;97273.34;5121961;28;19974;-61
2022/11/19 07:00:27;;;;;;;;;;;;;;;4.63;100.00;97273.34;5121219;28;19935;-59
2022/11/19 07:02:53;;;;;;;;;;;;;;;4.37;100.00;97274.75;5105378;28;19926;-60
2022/11/19 07:05:20;;;;;;;;;;;;;;;4.64;100.00;97269.66;5124658;28;20443;-61
2022/11/19 07:07:46;;;;;;;;;;;;;;;4.77;100.00;97270.13;5123042;28;20003;-61
2022/11/19 07:10:12;;;;;;;;;;;;;;;5.10;100.00;97282.53;5121275;28;19956;-60
2022/11/19 07:12:39;;;;;;;;;;;;;;;4.42;100.00;97274.06;5121674;28;19974;-61
2022/11/19 07:15:07;;;;;;;;;;;;;;;3.92;100.00;97277.41;5124683;28;19977;-61
2022/11/19 07:17:33;;;;;;;;;;;;;;;4.54;100.00;97272.94;5124770;28;19983;-61
2022/11/19 07:20:00;;;;;;;;;;;;;;;4.07;100.00;97269.75;5121129;28;20023;-62
2022/11/19 07:22:26;;;;;;;;;;;;;;;3.99;100.00;97275.41;5120939;28;19930;-61
2022/11/19 07:24:53;;;;;;;;;;;;;;;4.05;100.00;97269.19;5115109;28;20077;-61
2022/11/19 07:27:19;;;;;;;;;;;;;;;4.48;100.00;97265.16;5123037;28;20027;-61
2022/11/19 07:29:45;;;;;;;;;;;;;;;4.49;100.00;97266.78;5122744;28;20020;-60
2022/11/19 07:32:13;;;;;;;;;;;;;;;4.40;100.00;97257.59;5120719;28;20007;-60
2022/11/19 07:34:39;;;;;;;;;;;;;;;3.92;100.00;97266.84;5121140;28;19991;-61
2022/11/19 07:37:06;;;;;;;;;;;;;;;4.16;100.00;97264.88;5124000;28;19955;-61
2022/11/19 07:39:32;;;;;;;;;;;;;;;3.80;100.00;97279.28;5105717;28;19927;-61
2022/11/19 07:44:42;;;;;;;;;;;;;;;4.25;100.00;97282.75;5121816;28;19928;-61
2022/11/19 07:47:09;;;;;;;;;;;;;;;4.75;100.00;97282.00;5124492;28;19955;-61
2022/11/19 07:49:36;;;;;;;;;;;;;;;4.83;100.00;97281.56;5124313;28;20003;-60
2022/11/19 07:52:03;;;;;;;;;;;;;;;4.63;100.00;97283.91;5110849;28;19963;-61
2022/11/19 07:54:29;;;;;;;;;;;;;;;4.82;100.00;97287.94;5112024;28;19963;-60
2022/11/19 07:56:56;;;;;;;;;;;;;;;4.93;100.00;97294.16;5122920;28;19927;-60
2022/11/19 07:59:22;;;;;;;;;;;;;;;4.46;100.00;97281.25;5123614;28;19931;-61
2022/11/19 08:01:48;;;;;;;;;;;;;;;3.95;100.00;97284.84;5122066;28;19928;-61
2022/11/19 08:04:15;;;;;;;;;;;;;;;3.77;100.00;97285.84;5120017;28;20348;-61
2022/11/19 08:06:43;;;;;;;;;;;;;;;3.85;100.00;97291.75;5120806;28;19956;-61
2022/11/19 08:09:09;;;;;;;;;;;;;;;4.10;100.00;97293.06;5123421;28;19924;-61
2022/11/19 08:11:35;;;;;;;;;;;;;;;3.37;100.00;97276.28;5123205;28;19971;-62
2022/11/19 08:14:02;;;;;;;;;;;;;;;3.63;100.00;97279.22;5119610;28;19924;-60
2022/11/19 08:19:13;;;;;;;;;;;;;;;3.46;100.00;97277.53;5119954;28;20325;-61
2022/11/19 08:21:41;;;;;;;;;;;;;;;3.40;100.00;97295.13;5120117;28;19938;-61
2022/11/19 08:24:09;;;;;;;;;;;;;;;3.60;100.00;97294.72;5113837;28;19963;-61
2022/11/19 08:26:35;;;;;;;;;;;;;;;3.55;100.00;97289.34;5119441;28;19964;-61
2022/11/19 08:29:02;;;;;;;;;;;;;;;3.81;100.00;97296.72;5119814;28;20017;-61
2022/11/19 08:31:28;;;;;;;;;;;;;;;3.43;100.00;97294.66;5119596;28;19984;-60
2022/11/19 08:33:54;;;;;;;;;;;;;;;3.90;100.00;97302.44;5122254;28;19967;-61
2022/11/19 08:36:21;;;;;;;;;;;;;;;3.90;100.00;97308.50;5123114;28;19970;-61
2022/11/19 08:38:47;;;;;;;;;;;;;;;4.54;100.00;97302.03;5121336;28;19988;-61
2022/11/19 08:43:59;;;;;;;;;;;;;;;4.00;100.00;97319.28;5122816;28;19950;-60
2022/11/19 08:46:25;;;;;;;;;;;;;;;4.62;100.00;97324.63;5122870;28;19931;-60
2022/11/19 08:48:52;;;;;;;;;;;;;;;4.30;100.00;97319.06;5120601;28;19963;-61
2022/11/19 08:51:18;;;;;;;;;;;;;;;4.77;100.00;97332.78;5119362;28;19924;-60
2022/11/19 08:53:45;;;;;;;;;;;;;;;4.22;100.00;97325.50;5114756;28;19935;-60
2022/11/19 08:56:11;;;;;;;;;;;;;;;3.81;100.00;97326.56;5119551;28;19995;-61
2022/11/19 08:58:39;;;;;;;;;;;;;;;3.56;100.00;97326.03;5119748;28;20011;-60
2022/11/19 09:01:10;;;;;;;;;;;;;;;3.85;100.00;97326.09;5123147;28;19957;-61
2022/11/19 09:03:36;;;;;;;;;;;;;;;3.72;100.00;97321.88;5122790;28;20998;-60
2022/11/19 09:06:02;;;;;;;;;;;;;;;3.95;100.00;97324.47;5118871;28;19984;-61
2022/11/19 09:08:29;;;;;;;;;;;;;;;4.04;100.00;97323.06;5119046;28;19950;-61
2022/11/19 09:10:55;;;;;;;;;;;;;;;3.90;100.00;97324.34;5121979;28;20014;-60
2022/11/19 09:13:21;;;;;;;;;;;;;;;3.77;100.00;97322.81;5122506;28;19924;-60
2022/11/19 09:15:49;;;;;;;;;;;;;;;3.49;100.00;97319.31;5120744;28;19983;-60
2022/11/19 09:18:16;;;;;;;;;;;;;;;3.53;100.00;97328.38;5119015;28;19966;-61
2022/11/19 09:20:42;;;;;;;;;;;;;;;3.61;100.00;97333.28;5120097;28;19924;-61
2022/11/19 09:23:09;;;;;;;;;;;;;;;3.58;100.00;97334.56;5117646;28;19984;-61
2022/11/19 09:25:35;;;;;;;;;;;;;;;3.75;100.00;97345.19;5118542;28;20016;-61
2022/11/19 09:28:02;;;;;;;;;;;;;;;3.77;100.00;97343.94;5118661;28;19924;-60
2022/11/19 09:30:28;;;;;;;;;;;;;;;3.46;100.00;97343.53;5118576;28;19946;-61
2022/11/19 09:32:58;;;;;;;;;;;;;;;3.94;100.00;97344.00;5121435;28;19979;-61
2022/11/19 09:35:24;;;;;;;;;;;;;;;3.72;100.00;97354.38;5104011;28;19927;-61
2022/11/19 09:37:51;;;;;;;;;;;;;;;3.77;100.00;97354.50;5119914;28;19970;-61
2022/11/19 09:40:19;;;;;;;;;;;;;;;4.08;100.00;97342.69;5118398;28;19956;-60
2022/11/19 09:42:53;;;;;;;;;;;;;;;4.07;100.00;97343.72;5119905;28;19988;-61
2022/11/19 09:45:22;;;;;;;;;;;;;;;3.89;100.00;97351.03;5121913;28;19998;-60
2022/11/19 09:48:01;;;;;;;;;;;;;;;3.41;100.00;97353.94;5119968;28;19976;-61
2022/11/19 09:50:29;;;;;;;;;;;;;;;3.58;100.00;97353.03;5117462;28;19959;-62
2022/11/19 09:52:59;;;;;;;;;;;;;;;3.69;100.00;97351.41;5118099;28;19932;-61
2022/11/19 09:55:28;;;;;;;;;;;;;;;3.30;100.00;97357.41;5116935;28;19945;-61
2022/11/19 09:57:56;;;;;;;;;;;;;;;3.47;100.00;97355.66;5119309;28;19951;-61
2022/11/19 10:00:23;;;;;;;;;;;;;;;3.35;100.00;97349.59;5118408;28;19966;-61
2022/11/19 10:02:50;;;;;;;;;;;;;;;3.66;100.00;97338.66;5120364;28;19935;-61
2022/11/19 10:05:23;;;;;;;;;;;;;;;3.48;100.00;97339.63;5121998;28;19924;-61
2022/11/19 10:07:54;;;;;;;;;;;;;;;3.80;100.00;97334.75;5119759;28;19994;-60
2022/11/19 10:10:27;;;;;;;;;;;;;;;3.65;100.00;97335.22;5118072;28;19928;-61
2022/11/19 10:13:10;;;;;;;;;;;;;;;3.50;100.00;97339.38;5120821;28;19920;-61
2022/11/19 10:15:40;;;;;;;;;;;;;;;3.94;100.00;97333.44;5121224;28;20018;-61
2022/11/19 10:18:11;;;;;;;;;;;;;;;3.97;100.00;97321.59;5118109;28;20012;-60
2022/11/19 10:20:48;;;;;;;;;;;;;;;4.14;100.00;97320.63;5118133;28;19928;-61
2022/11/19 10:23:16;;;;;;;;;;;;;;;3.92;100.00;97329.41;5116253;28;19996;-60
2022/11/19 10:25:44;;;;;;;;;;;;;;;3.67;100.00;97327.88;5117996;28;19974;-60
2022/11/19 10:28:12;;;;;;;;;;;;;;;4.12;100.00;97330.59;5118251;28;19980;-61
2022/11/19 10:30:40;;;;;;;;;;;;;;;4.06;100.00;97328.91;5118505;28;19964;-61
2022/11/19 10:33:12;;;;;;;;;;;;;;;4.05;100.00;97322.03;5121696;28;19954;-60
2022/11/19 10:35:40;;;;;;;;;;;;;;;4.05;100.00;97319.38;5121277;28;19930;-60
2022/11/19 10:38:14;;;;;;;;;;;;;;;4.16;100.00;97328.28;5118339;28;19936;-61
2022/11/19 10:40:43;;;;;;;;;;;;;;;4.40;100.00;97326.34;5118537;28;19924;-61
2022/11/19 10:43:15;;;;;;;;;;;;;;;3.82;100.00;97327.38;5121657;28;19930;-60
2022/11/19 10:45:42;;;;;;;;;;;;;;;4.29;100.00;97323.53;5120440;28;19974;-61
2022/11/19 10:48:13;;;;;;;;;;;;;;;3.92;100.00;97335.50;5118203;28;19924;-61
2022/11/19 10:50:40;;;;;;;;;;;;;;;3.42;100.00;97335.25;5118378;28;19924;-61
2022/11/19 10:53:13;;;;;;;;;;;;;;;3.09;100.00;97337.69;5117048;28;19924;-60
2022/11/19 10:55:41;;;;;;;;;;;;;;;3.25;100.00;97340.44;5117705;28;19995;-60
2022/11/19 10:58:11;;;;;;;;;;;;;;;3.33;100.00;97338.47;5117704;28;19971;-60
2022/11/19 11:00:39;;;;;;;;;;;;;;;3.16;100.00;97333.91;5117942;28;19974;-60
2022/11/19 11:03:10;;;;;;;;;;;;;;;2.99;100.00;97329.53;5106929;28;19966;-61
2022/11/19 11:05:54;;;;;;;;;;;;;;;3.47;100.00;97331.91;5124911;28;19995;-62
2022/11/19 11:08:22;;;;;;;;;;;;;;;3.28;100.00;97332.06;5121646;28;19985;-60
2022/11/19 11:10:50;;;;;;;;;;;;;;;3.16;100.00;97335.72;5123073;28;19960;-60
2022/11/19 11:16:11;;;;;;;;;;;;;;;2.96;100.00;97338.72;5137432;27;19950;-60
2022/11/19 11:18:39;;;;;;;;;;;;;;;2.91;100.00;97328.03;5121751;28;19971;-61
2022/11/19 11:21:07;;;;;;;;;;;;;;;3.28;100.00;97324.13;5124865;28;19930;-61
2022/11/19 11:23:45;;;;;;;;;;;;;;;3.12;100.00;97327.50;5116618;28;19963;-61
2022/11/19 11:26:17;;;;;;;;;;;;;;;3.26;100.00;97330.69;5121277;28;19948;-61
2022/11/19 11:28:53;;;;;;;;;;;;;;;3.26;100.00;97331.47;5122202;28;20018;-61
2022/11/19 11:31:28;;;;;;;;;;;;;;;3.56;100.00;97331.31;5124258;28;20050;-61
2022/11/19 11:33:55;;;;;;;;;;;;;;;3.45;100.00;97332.16;5121820;28;20018;-60
2022/11/19 11:36:24;;;;;;;;;;;;;;;3.17;100.00;97327.59;5120700;28;20000;-61
2022/11/19 11:38:53;;;;;;;;;;;;;;;3.21;100.00;97330.56;5122753;28;20011;-60
2022/11/19 11:41:20;;;;;;;;;;;;;;;4.07;100.00;97312.03;5123940;28;19968;-60
2022/11/19 11:44:00;;;;;;;;;;;;;;;3.44;100.00;97327.09;5122601;28;19970;-61
2022/11/19 11:46:33;;;;;;;;;;;;;;;3.77;100.00;97327.28;5120320;28;19924;-60
2022/11/19 11:48:59;;;;;;;;;;;;;;;4.06;100.00;97320.97;5123724;28;20160;-62
2022/11/19 11:51:26;;;;;;;;;;;;;;;3.56;100.00;97314.72;5123778;28;19979;-61
2022/11/19 11:54:04;;;;;;;;;;;;;;;3.59;100.00;97325.59;5113305;28;19934;-61
2022/11/19 11:56:31;;;;;;;;;;;;;;;3.37;100.00;97327.25;5120335;28;19932;-62
2022/11/19 11:59:12;;;;;;;;;;;;;;;3.29;100.00;97317.03;5123659;28;19958;-61
2022/11/19 12:01:40;;;;;;;;;;;;;;;3.50;100.00;97321.69;5123622;28;19947;-61
2022/11/19 12:04:11;;;;;;;;;;;;;;;4.31;100.00;97316.16;5120523;28;19970;-61
2022/11/19 12:06:41;;;;;;;;;;;;;;;3.97;100.00;97317.09;5120559;28;19960;-62
2022/11/19 12:09:16;;;;;;;;;;;;;;;4.22;100.00;97314.13;5124007;28;19958;-61
2022/11/19 12:11:56;;;;;;;;;;;;;;;3.72;100.00;97314.78;5123098;28;19928;-61
2022/11/19 12:14:25;;;;;;;;;;;;;;;3.83;100.00;97310.50;5119816;28;19939;-61
2022/11/19 12:17:15;;;;;;;;;;;;;;;3.54;100.00;97308.84;5122400;28;19992;-61
2022/11/19 12:19:51;;;;;;;;;;;;;;;3.35;100.00;97310.81;5112304;28;19928;-61
2022/11/19 12:22:24;;;;;;;;;;;;;;;3.51;100.00;97302.19;5120054;28;19987;-60
2022/11/19 12:24:59;;;;;;;;;;;;;;;3.41;100.00;97311.72;5113680;28;19950;-61
2022/11/19 12:27:29;;;;;;;;;;;;;;;3.62;100.00;97303.22;5123368;28;19930;-61
2022/11/19 12:30:01;;;;;;;;;;;;;;;3.61;100.00;97312.16;5120707;28;19951;-60
2022/11/19 12:32:45;;;;;;;;;;;;;;;4.09;100.00;97312.56;5119753;28;19979;-61
2022/11/19 12:35:26;;;;;;;;;;;;;;;3.91;100.00;97312.75;5105395;28;19924;-60
2022/11/19 12:37:58;;;;;;;;;;;;;;;3.79;100.00;97314.63;5122079;28;19924;-60
2022/11/19 12:40:30;;;;;;;;;;;;;;;3.96;100.00;97322.63;5123066;28;19951;-60
2022/11/19 12:43:03;;;;;;;;;;;;;;;3.73;100.00;97328.78;5120291;28;19935;-61
2022/11/19 12:45:35;;;;;;;;;;;;;;;3.85;100.00;97328.75;5119729;28;19924;-61
2022/11/19 12:48:20;;;;;;;;;;;;;;;3.69;100.00;97315.25;5119925;28;19939;-61
2022/11/19 12:50:51;;;;;;;;;;;;;;;3.53;100.00;97310.69;5121038;28;19963;-60
2022/11/19 12:53:27;;;;;;;;;;;;;;;3.87;100.00;97311.63;5117171;28;19995;-61
2022/11/19 12:56:04;;;;;;;;;;;;;;;3.94;100.00;97309.66;5119570;28;19927;-60
2022/11/19 12:58:39;;;;;;;;;;;;;;;3.59;100.00;97309.75;5119554;28;19996;-60
2022/11/19 13:01:10;;;;;;;;;;;;;;;3.80;100.00;97303.06;5119282;28;19924;-60
2022/11/19 13:03:44;;;;;;;;;;;;;;;4.17;100.00;97301.66;5119502;28;19934;-61
2022/11/19 13:06:13;;;;;;;;;;;;;;;3.73;100.00;97305.81;5119324;28;19924;-60
2022/11/19 13:08:41;;;;;;;;;;;;;;;3.48;100.00;97315.84;5119507;28;19959;-60
2022/11/19 13:11:11;;;;;;;;;;;;;;;3.13;100.00;97317.72;5122577;28;20408;-61
2022/11/19 13:13:40;;;;;;;;;;;;;;;3.07;100.00;97311.53;5122411;28;19928;-60
2022/11/19 13:16:09;;;;;;;;;;;;;;;3.38;100.00;97304.28;5118911;28;19931;-62
2022/11/19 13:18:38;;;;;;;;;;;;;;;3.04;100.00;97303.25;5118882;28;19983;-61
2022/11/19 13:21:07;;;;;;;;;;;;;;;2.85;100.00;97292.03;5118676;28;19924;-61
2022/11/19 13:23:36;;;;;;;;;;;;;;;2.83;100.00;97296.72;5113647;28;19954;-60
2022/11/19 13:26:06;;;;;;;;;;;;;;;3.33;100.00;97304.19;5118016;28;20504;-60
2022/11/19 13:28:37;;;;;;;;;;;;;;;3.62;100.00;97298.72;5118719;28;19924;-61